createdAt,value
2022-12-02T00:00:09.155Z,25.10
2022-12-02T00:01:09.170Z,29.20
2022-12-02T00:02:09.141Z,27.00
2022-12-02T00:03:09.272Z,26.90
2022-12-02T00:04:09.214Z,28.10
2022-12-02T00:05:09.092Z,27.30
2022-12-02T00:06:09.090Z,29.00
2022-12-02T00:07:09.179Z,29.20
2022-12-02T00:08:09.086Z,27.20
2022-12-02T00:09:09.061Z,31.30
2022-12-02T00:10:09.020Z,28.30
2022-12-02T00:11:09.020Z,28.80
2022-12-02T00:12:09.030Z,25.10
2022-12-02T00:13:09.035Z,29.60
2022-12-02T00:14:08.988Z,29.00
2022-12-02T00:15:08.977Z,28.90
2022-12-02T00:16:08.979Z,26.90
2022-12-02T00:17:08.952Z,26.00
2022-12-02T00:18:09.260Z,24.90
2022-12-02T00:19:08.924Z,32.80
2022-12-02T00:20:08.924Z,28.40
2022-12-02T00:21:08.932Z,28.10
2022-12-02T00:22:08.902Z,30.30
2022-12-02T00:23:08.922Z,26.90
2022-12-02T00:24:08.927Z,31.00
2022-12-02T00:25:08.855Z,30.80
2022-12-02T00:26:08.840Z,26.90
2022-12-02T00:27:08.824Z,26.60
2022-12-02T00:28:08.827Z,23.80
2022-12-02T00:29:08.808Z,29.30
2022-12-02T00:30:08.823Z,26.10
2022-12-02T00:31:08.899Z,27.00
2022-12-02T00:32:08.840Z,28.00
2022-12-02T00:33:08.774Z,27.20
2022-12-02T00:34:08.770Z,25.50
2022-12-02T00:35:08.737Z,25.90
2022-12-02T00:36:09.463Z,28.50
2022-12-02T00:37:08.745Z,28.00
2022-12-02T00:38:08.711Z,26.40
2022-12-02T00:39:08.688Z,29.90
2022-12-02T00:40:08.699Z,32.60
2022-12-02T00:41:08.676Z,25.10
2022-12-02T00:42:08.695Z,25.20
2022-12-02T00:43:08.646Z,29.30
2022-12-02T00:44:08.626Z,29.10
2022-12-02T00:45:08.624Z,27.00
2022-12-02T00:46:08.634Z,28.50
2022-12-02T00:47:08.630Z,25.30
2022-12-02T00:48:08.644Z,24.60
2022-12-02T00:49:08.575Z,28.90
2022-12-02T00:50:08.567Z,29.00
2022-12-02T00:51:08.551Z,30.00
2022-12-02T00:52:08.543Z,26.10
2022-12-02T00:53:08.532Z,29.30
2022-12-02T00:54:08.544Z,29.20
2022-12-02T00:55:08.507Z,27.40
2022-12-02T00:56:08.489Z,25.70
2022-12-02T00:57:08.486Z,29.80
2022-12-02T00:58:08.495Z,29.80
2022-12-02T00:59:08.455Z,29.00
2022-12-02T01:00:08.514Z,28.60
2022-12-02T01:01:08.496Z,29.60
2022-12-02T01:02:08.552Z,27.20
2022-12-02T01:03:08.419Z,29.00
2022-12-02T01:04:08.404Z,28.30
2022-12-02T01:05:08.384Z,27.50
2022-12-02T01:06:08.417Z,29.90
2022-12-02T01:07:08.418Z,29.00
2022-12-02T01:08:08.452Z,26.50
2022-12-02T01:09:08.366Z,33.60
2022-12-02T01:10:08.336Z,31.40
2022-12-02T01:11:08.318Z,29.30
2022-12-02T01:12:08.327Z,28.80
2022-12-02T01:13:08.288Z,28.60
2022-12-02T01:14:08.310Z,26.90
2022-12-02T01:15:08.284Z,28.00
2022-12-02T01:16:08.342Z,27.20
2022-12-02T01:17:08.279Z,27.20
2022-12-02T01:18:08.239Z,28.70
2022-12-02T01:19:08.226Z,29.00
2022-12-02T01:20:08.216Z,30.20
2022-12-02T01:21:08.202Z,30.80
2022-12-02T01:22:08.206Z,31.80
2022-12-02T01:23:08.209Z,35.50
2022-12-02T01:24:08.163Z,26.10
2022-12-02T01:25:08.156Z,30.70
2022-12-02T01:26:08.142Z,26.10
2022-12-02T01:27:08.137Z,29.80
2022-12-02T01:28:08.121Z,30.60
2022-12-02T01:29:08.142Z,29.50
2022-12-02T01:30:08.109Z,32.00
2022-12-02T01:31:08.087Z,30.40
2022-12-02T01:32:08.120Z,28.10
2022-12-02T01:33:08.072Z,33.60
2022-12-02T01:34:08.050Z,30.10
2022-12-02T01:35:08.069Z,29.00
2022-12-02T01:36:08.029Z,32.40
2022-12-02T01:37:08.063Z,32.60
2022-12-02T01:38:08.009Z,36.30
2022-12-02T01:39:07.990Z,33.90
2022-12-02T01:40:07.981Z,33.20
2022-12-02T01:41:07.990Z,34.90
2022-12-02T01:42:07.963Z,34.50
2022-12-02T01:43:07.949Z,33.30
2022-12-02T01:44:07.943Z,37.00
2022-12-02T01:45:07.929Z,35.80
2022-12-02T01:46:07.993Z,34.20
2022-12-02T01:47:07.912Z,37.60
2022-12-02T01:48:07.891Z,35.20
2022-12-02T01:49:07.885Z,34.40
2022-12-02T01:50:07.870Z,31.60
2022-12-02T01:51:07.860Z,35.20
2022-12-02T01:52:07.876Z,34.00
2022-12-02T01:53:07.846Z,33.20
2022-12-02T01:54:07.861Z,39.40
2022-12-02T01:55:07.808Z,37.80
2022-12-02T01:56:07.801Z,33.80
2022-12-02T01:57:07.809Z,33.40
2022-12-02T01:58:07.801Z,34.30
2022-12-02T01:59:07.765Z,35.00
2022-12-02T02:00:07.753Z,32.30
2022-12-02T02:01:07.773Z,30.20
2022-12-02T02:02:07.755Z,36.70
2022-12-02T02:03:07.755Z,37.20
2022-12-02T02:04:07.706Z,36.00
2022-12-02T02:05:07.695Z,31.90
2022-12-02T02:06:07.714Z,34.80
2022-12-02T02:07:07.668Z,34.40
2022-12-02T02:08:07.731Z,31.50
2022-12-02T02:09:07.691Z,29.40
2022-12-02T02:10:07.633Z,31.70
2022-12-02T02:11:07.622Z,29.50
2022-12-02T02:12:07.627Z,33.30
2022-12-02T02:13:07.612Z,35.40
2022-12-02T02:14:07.600Z,32.70
2022-12-02T02:15:07.623Z,33.50
2022-12-02T02:16:07.563Z,31.40
2022-12-02T02:17:07.676Z,34.30
2022-12-02T02:18:07.552Z,30.30
2022-12-02T02:19:07.523Z,33.80
2022-12-02T02:20:07.527Z,32.40
2022-12-02T02:21:07.524Z,32.40
2022-12-02T02:22:07.494Z,28.50
2022-12-02T02:23:07.560Z,37.90
2022-12-02T02:24:07.465Z,35.40
2022-12-02T02:25:07.462Z,34.00
2022-12-02T02:26:07.471Z,31.10
2022-12-02T02:27:07.444Z,32.80
2022-12-02T02:28:07.413Z,31.70
2022-12-02T02:29:07.413Z,31.60
2022-12-02T02:30:07.402Z,30.20
2022-12-02T02:31:07.429Z,31.70
2022-12-02T02:32:07.403Z,35.60
2022-12-02T02:33:07.375Z,34.50
2022-12-02T02:34:07.357Z,34.90
2022-12-02T02:35:07.367Z,31.80
2022-12-02T02:36:07.333Z,34.40
2022-12-02T02:37:07.338Z,38.70
2022-12-02T02:38:07.357Z,31.60
2022-12-02T02:39:07.294Z,31.60
2022-12-02T02:40:07.295Z,32.70
2022-12-02T02:41:07.304Z,34.10
2022-12-02T02:42:07.270Z,33.70
2022-12-02T02:43:07.244Z,32.80
2022-12-02T02:44:07.266Z,30.70
2022-12-02T02:45:07.235Z,31.10
2022-12-02T02:46:07.275Z,30.60
2022-12-02T02:47:07.209Z,31.10
2022-12-02T02:48:07.186Z,26.90
2022-12-02T02:49:07.178Z,35.50
2022-12-02T02:50:07.186Z,31.30
2022-12-02T02:51:07.161Z,29.70
2022-12-02T02:52:07.143Z,29.20
2022-12-02T02:53:07.145Z,32.40
2022-12-02T02:54:07.117Z,31.00
2022-12-02T02:55:07.142Z,31.30
2022-12-02T02:56:07.136Z,32.00
2022-12-02T02:57:07.076Z,31.10
2022-12-02T02:58:07.067Z,39.60
2022-12-02T02:59:07.059Z,33.50
2022-12-02T03:00:07.047Z,33.20
2022-12-02T03:01:07.081Z,33.80
2022-12-02T03:02:07.117Z,30.90
2022-12-02T03:03:07.047Z,30.30
2022-12-02T03:04:06.999Z,31.10
2022-12-02T03:05:06.998Z,33.20
2022-12-02T03:06:06.999Z,32.60
2022-12-02T03:07:06.966Z,30.70
2022-12-02T03:08:07.007Z,31.20
2022-12-02T03:09:06.948Z,32.70
2022-12-02T03:10:06.928Z,31.90
2022-12-02T03:11:06.918Z,29.80
2022-12-02T03:12:07.097Z,30.50
2022-12-02T03:13:06.901Z,35.60
2022-12-02T03:14:06.883Z,32.00
2022-12-02T03:15:06.886Z,30.70
2022-12-02T03:16:06.857Z,25.80
2022-12-02T04:39:20.533Z,21.60
2022-12-02T04:40:20.535Z,23.00
2022-12-02T04:41:20.484Z,22.60
2022-12-02T04:42:20.491Z,20.10
2022-12-02T04:43:20.491Z,22.70
2022-12-02T04:44:20.477Z,23.40
2022-12-02T04:45:20.445Z,21.50
2022-12-02T04:46:20.483Z,24.80
2022-12-02T04:47:20.416Z,24.50
2022-12-02T04:48:20.412Z,26.20
2022-12-02T04:49:20.415Z,23.10
2022-12-02T04:50:20.385Z,21.20
2022-12-02T04:51:20.363Z,22.70
2022-12-02T04:52:20.397Z,26.90
2022-12-02T04:53:20.410Z,27.80
2022-12-02T04:54:20.360Z,19.40
2022-12-02T04:55:20.342Z,21.20
2022-12-02T04:56:20.333Z,21.20
2022-12-02T04:57:20.311Z,21.00
2022-12-02T04:58:20.343Z,23.40
2022-12-02T04:59:20.294Z,25.20
2022-12-02T05:00:20.283Z,24.80
2022-12-02T05:01:20.264Z,22.80
2022-12-02T05:02:20.256Z,27.10
2022-12-02T05:03:20.319Z,21.40
2022-12-02T05:04:20.293Z,22.30
2022-12-02T05:05:20.216Z,22.90
2022-12-02T05:06:20.219Z,21.40
2022-12-02T05:07:20.294Z,24.40
2022-12-02T05:08:20.187Z,20.00
2022-12-02T05:09:20.204Z,24.60
2022-12-02T05:10:20.175Z,24.50
2022-12-02T05:11:20.154Z,21.80
2022-12-02T05:12:20.166Z,23.40
2022-12-02T05:13:20.157Z,24.40
2022-12-02T05:14:20.114Z,23.40
2022-12-02T05:15:20.169Z,30.60
2022-12-02T05:16:20.187Z,30.40
2022-12-02T05:17:20.085Z,31.10
2022-12-02T05:18:20.080Z,28.30
2022-12-02T05:19:20.071Z,29.00
2022-12-02T05:20:20.050Z,24.50
2022-12-02T05:21:20.046Z,24.50
2022-12-02T05:22:20.036Z,25.40
2022-12-02T05:23:20.012Z,22.80
2022-12-02T05:24:20.015Z,22.50
2022-12-02T05:25:19.996Z,20.60
2022-12-02T05:26:20.020Z,22.60
2022-12-02T05:27:19.967Z,20.60
2022-12-02T05:28:19.956Z,23.30
2022-12-02T05:29:19.972Z,21.50
2022-12-02T05:30:20.188Z,19.30
2022-12-02T05:31:19.963Z,18.40
2022-12-02T05:32:19.927Z,24.40
2022-12-02T05:33:19.909Z,20.40
2022-12-02T05:34:19.940Z,19.80
2022-12-02T05:35:19.890Z,19.50
2022-12-02T05:36:19.869Z,19.20
2022-12-02T05:37:19.891Z,20.70
2022-12-02T05:38:19.842Z,20.50
2022-12-02T05:39:19.860Z,20.40
2022-12-02T05:40:19.818Z,23.10
2022-12-02T05:41:19.807Z,20.20
2022-12-02T05:42:19.820Z,18.10
2022-12-02T05:43:19.842Z,19.20
2022-12-02T05:44:19.795Z,19.10
2022-12-02T05:45:19.757Z,19.10
2022-12-02T05:46:19.825Z,21.00
2022-12-02T05:47:19.750Z,18.40
2022-12-02T05:48:19.730Z,21.30
2022-12-02T05:49:19.739Z,16.70
2022-12-02T05:50:19.697Z,17.00
2022-12-02T05:51:19.691Z,17.00
2022-12-02T05:52:19.679Z,17.20
2022-12-02T05:53:19.680Z,16.80
2022-12-02T05:54:19.656Z,17.00
2022-12-02T05:55:19.667Z,19.50
2022-12-02T05:56:19.631Z,16.90
2022-12-02T05:57:23.022Z,18.90
2022-12-02T05:58:20.609Z,15.70
2022-12-02T05:59:19.602Z,18.10
2022-12-02T06:00:19.621Z,17.40
2022-12-02T06:01:19.583Z,18.60
2022-12-02T06:02:19.690Z,18.20
2022-12-02T06:03:19.659Z,16.00
2022-12-02T06:04:19.539Z,17.50
2022-12-02T06:05:19.531Z,20.10
2022-12-02T06:06:19.541Z,17.30
2022-12-02T06:07:19.499Z,16.40
2022-12-02T06:08:19.503Z,18.30
2022-12-02T06:09:19.495Z,19.00
2022-12-02T06:10:19.471Z,20.90
2022-12-02T06:11:19.461Z,18.50
2022-12-02T06:12:19.470Z,16.50
2022-12-02T06:13:19.444Z,16.70
2022-12-02T06:14:19.429Z,15.60
2022-12-02T06:15:19.411Z,17.80
2022-12-02T06:16:19.450Z,17.10
2022-12-02T06:17:19.411Z,15.20
2022-12-02T06:18:19.373Z,18.70
2022-12-02T06:19:19.371Z,20.50
2022-12-02T06:20:19.371Z,18.50
2022-12-02T06:21:19.343Z,19.30
2022-12-02T06:22:19.330Z,18.20
2022-12-02T06:23:19.379Z,21.00
2022-12-02T06:24:19.311Z,17.10
2022-12-02T06:25:19.323Z,20.30
2022-12-02T06:26:19.282Z,18.00
2022-12-02T06:27:19.286Z,17.90
2022-12-02T06:28:19.336Z,15.60
2022-12-02T06:29:19.292Z,16.40
2022-12-02T06:30:19.243Z,17.90
2022-12-02T06:31:19.337Z,18.30
2022-12-02T06:32:19.219Z,20.60
2022-12-02T06:33:22.486Z,16.40
2022-12-02T06:34:19.198Z,15.80
2022-12-02T06:35:19.221Z,17.40
2022-12-02T06:36:19.198Z,17.60
2022-12-02T06:37:19.162Z,17.10
2022-12-02T06:38:19.146Z,17.00
2022-12-02T06:39:19.134Z,16.60
2022-12-02T06:40:27.964Z,18.10
2022-12-02T06:41:20.202Z,15.70
2022-12-02T06:42:19.103Z,17.10
2022-12-02T06:43:19.093Z,17.70
2022-12-02T06:44:19.084Z,16.70
2022-12-02T06:45:19.981Z,16.00
2022-12-02T06:46:19.089Z,15.70
2022-12-02T06:47:20.288Z,16.50
2022-12-02T06:48:19.043Z,16.40
2022-12-02T06:49:19.031Z,16.30
2022-12-02T06:50:19.012Z,17.30
2022-12-02T06:51:19.002Z,17.00
2022-12-02T06:52:18.996Z,16.70
2022-12-02T06:53:19.005Z,16.40
2022-12-02T06:54:18.972Z,15.20
2022-12-02T06:55:18.974Z,17.60
2022-12-02T06:56:18.944Z,16.50
2022-12-02T06:57:18.948Z,17.80
2022-12-02T06:58:18.945Z,15.80
2022-12-02T06:59:18.924Z,17.40
2022-12-02T07:00:18.904Z,17.80
2022-12-02T07:01:18.950Z,18.50
2022-12-02T07:02:18.943Z,19.50
2022-12-02T07:03:18.889Z,19.00
2022-12-02T07:04:18.883Z,16.30
2022-12-02T07:05:18.859Z,15.10
2022-12-02T07:06:18.843Z,17.50
2022-12-02T07:07:18.822Z,16.30
2022-12-02T07:08:18.815Z,15.80
2022-12-02T07:09:18.804Z,17.50
2022-12-02T07:10:18.843Z,16.60
2022-12-02T07:11:18.784Z,17.50
2022-12-02T07:12:18.780Z,15.90
2022-12-02T07:13:18.769Z,18.00
2022-12-02T07:14:18.747Z,17.10
2022-12-02T07:15:18.746Z,15.00
2022-12-02T07:16:18.796Z,19.80
2022-12-02T07:17:19.460Z,16.70
2022-12-02T07:18:18.712Z,15.90
2022-12-02T07:19:18.695Z,17.40
2022-12-02T07:20:18.684Z,15.30
2022-12-02T07:21:18.684Z,15.10
2022-12-02T07:22:18.718Z,16.60
2022-12-02T07:23:18.656Z,17.70
2022-12-02T07:24:18.648Z,16.60
2022-12-02T07:25:18.637Z,16.30
2022-12-02T07:26:18.630Z,17.30
2022-12-02T07:27:18.643Z,18.40
2022-12-02T07:28:18.598Z,17.50
2022-12-02T07:29:18.595Z,16.10
2022-12-02T07:30:18.585Z,17.10
2022-12-02T07:31:18.644Z,17.10
2022-12-02T07:32:18.557Z,18.60
2022-12-02T07:33:18.565Z,16.50
2022-12-02T07:34:18.528Z,17.40
2022-12-02T07:35:18.526Z,18.70
2022-12-02T07:36:18.520Z,17.00
2022-12-02T07:37:18.504Z,17.80
2022-12-02T07:38:31.745Z,14.40
2022-12-02T07:39:19.487Z,16.10
2022-12-02T07:40:18.492Z,15.80
2022-12-02T07:41:18.457Z,17.40
2022-12-02T07:42:18.458Z,15.60
2022-12-02T07:43:18.459Z,19.40
2022-12-02T07:44:18.477Z,17.90
2022-12-02T07:45:18.419Z,17.70
2022-12-02T07:46:18.466Z,16.70
2022-12-02T07:47:18.387Z,18.40
2022-12-02T07:48:18.394Z,18.40
2022-12-02T07:49:18.379Z,18.70
2022-12-02T07:50:18.387Z,18.90
2022-12-02T07:51:18.379Z,19.00
2022-12-02T07:52:18.391Z,15.30
2022-12-02T07:53:18.317Z,17.70
2022-12-02T07:54:18.324Z,19.10
2022-12-02T07:55:24.326Z,17.90
2022-12-02T07:56:19.320Z,16.90
2022-12-02T07:57:18.298Z,19.50
2022-12-02T07:58:18.279Z,16.30
2022-12-02T07:59:18.267Z,16.50
2022-12-02T08:00:18.268Z,18.70
2022-12-02T08:01:19.863Z,16.20
2022-12-02T08:02:18.408Z,19.20
2022-12-02T08:03:18.219Z,18.10
2022-12-02T08:04:18.238Z,19.00
2022-12-02T08:05:18.255Z,17.30
2022-12-02T08:06:18.190Z,18.00
2022-12-02T08:07:18.181Z,16.00
2022-12-02T08:08:18.189Z,17.60
2022-12-02T08:09:18.163Z,18.50
2022-12-02T08:10:18.270Z,18.10
2022-12-02T08:11:18.208Z,17.20
2022-12-02T08:12:18.119Z,18.80
2022-12-02T08:13:18.110Z,18.70
2022-12-02T08:14:18.299Z,18.20
2022-12-02T08:15:18.082Z,14.40
2022-12-02T08:16:18.096Z,16.90
2022-12-02T08:17:18.068Z,16.90
2022-12-02T08:18:18.097Z,18.40
2022-12-02T08:19:18.079Z,19.40
2022-12-02T08:20:18.040Z,17.50
2022-12-02T08:21:18.021Z,17.60
2022-12-02T08:22:18.022Z,16.70
2022-12-02T08:23:17.999Z,17.40
2022-12-02T08:24:18.011Z,17.00
2022-12-02T08:25:18.021Z,17.80
2022-12-02T08:26:17.972Z,17.00
2022-12-02T08:27:17.971Z,19.40
2022-12-02T08:28:17.970Z,19.00
2022-12-02T08:29:17.955Z,19.60
2022-12-02T08:30:17.920Z,17.10
2022-12-02T08:31:17.987Z,19.20
2022-12-02T08:32:17.919Z,17.30
2022-12-02T08:33:17.915Z,18.50
2022-12-02T08:34:17.880Z,18.10
2022-12-02T08:35:17.874Z,18.60
2022-12-02T08:36:17.875Z,18.10
2022-12-02T08:37:18.091Z,18.40
2022-12-02T08:38:17.833Z,17.30
2022-12-02T08:39:17.853Z,18.30
2022-12-02T08:40:17.821Z,19.80
2022-12-02T08:41:17.801Z,17.90
2022-12-02T08:42:17.791Z,18.80
2022-12-02T08:43:17.812Z,20.80
2022-12-02T08:44:17.777Z,16.40
2022-12-02T08:45:17.766Z,19.00
2022-12-02T08:46:17.840Z,15.80
2022-12-02T08:47:17.746Z,17.80
2022-12-02T08:48:17.752Z,16.60
2022-12-02T08:49:17.734Z,16.70
2022-12-02T08:50:17.701Z,18.10
2022-12-02T08:51:17.731Z,17.70
2022-12-02T08:52:17.683Z,17.40
2022-12-02T08:53:17.702Z,16.90
2022-12-02T08:54:17.682Z,18.70
2022-12-02T08:55:17.662Z,16.60
2022-12-02T08:56:17.642Z,17.60
2022-12-02T08:57:17.633Z,15.90
2022-12-02T08:58:17.643Z,17.80
2022-12-02T08:59:17.627Z,17.00
2022-12-02T09:00:17.631Z,17.90
2022-12-02T09:01:17.635Z,17.20
2022-12-02T09:02:17.702Z,17.90
2022-12-02T09:03:17.635Z,16.20
2022-12-02T09:04:17.551Z,16.70
2022-12-02T09:05:17.546Z,18.40
2022-12-02T09:06:17.563Z,17.00
2022-12-02T09:07:17.553Z,16.10
2022-12-02T09:08:17.514Z,15.80
2022-12-02T09:09:17.556Z,19.10
2022-12-02T09:10:17.519Z,19.60
2022-12-02T09:11:17.521Z,17.20
2022-12-02T09:12:17.464Z,19.00
2022-12-02T09:13:17.483Z,15.00
2022-12-02T09:14:17.472Z,18.30
2022-12-02T09:15:17.447Z,17.60
2022-12-02T09:16:17.520Z,18.30
2022-12-02T09:17:17.434Z,18.60
2022-12-02T09:18:17.405Z,17.80
2022-12-02T09:19:17.396Z,17.80
2022-12-02T09:20:17.407Z,15.80
2022-12-02T09:21:17.408Z,17.00
2022-12-02T09:22:17.357Z,17.70
2022-12-02T09:23:17.375Z,15.70
2022-12-02T09:24:17.336Z,15.90
2022-12-02T09:25:17.368Z,17.90
2022-12-02T09:26:17.318Z,17.60
2022-12-02T09:27:17.306Z,17.60
2022-12-02T09:28:17.305Z,17.20
2022-12-02T09:29:17.331Z,16.70
2022-12-02T09:30:17.281Z,17.80
2022-12-02T09:31:17.324Z,17.00
2022-12-02T09:32:17.268Z,17.80
2022-12-02T09:33:17.265Z,21.60
2022-12-02T09:34:17.222Z,17.70
2022-12-02T09:35:17.246Z,14.60
2022-12-02T09:36:17.210Z,13.40
2022-12-02T09:37:17.197Z,18.80
2022-12-02T09:38:17.186Z,13.90
2022-12-02T09:39:17.169Z,17.40
2022-12-02T09:40:17.322Z,17.00
2022-12-02T09:41:17.282Z,17.60
2022-12-02T09:42:17.148Z,14.70
2022-12-02T09:43:17.136Z,16.50
2022-12-02T09:44:17.127Z,16.30
2022-12-02T09:45:17.108Z,15.60
2022-12-02T09:46:22.878Z,15.20
2022-12-02T09:47:18.117Z,15.00
2022-12-02T09:48:17.077Z,14.50
2022-12-02T09:49:17.077Z,15.80
2022-12-02T09:50:17.059Z,15.70
2022-12-02T09:51:17.042Z,14.90
2022-12-02T09:52:21.063Z,15.80
2022-12-02T09:53:18.048Z,15.30
2022-12-02T09:54:17.026Z,14.90
2022-12-02T09:55:17.017Z,13.80
2022-12-02T09:56:17.023Z,14.70
2022-12-02T09:57:16.986Z,14.20
2022-12-02T09:58:16.987Z,15.80
2022-12-02T09:59:17.147Z,15.30
2022-12-02T10:00:16.942Z,14.30
2022-12-02T10:01:16.958Z,14.00
2022-12-02T10:02:16.979Z,13.60
2022-12-02T10:03:19.012Z,15.80
2022-12-02T10:04:16.906Z,13.10
2022-12-02T10:05:16.921Z,15.20
2022-12-02T10:06:16.881Z,14.00
2022-12-02T10:07:16.870Z,16.10
2022-12-02T10:08:16.892Z,13.00
2022-12-02T10:09:16.862Z,14.00
2022-12-02T10:10:16.846Z,13.10
2022-12-02T10:11:16.976Z,13.50
2022-12-02T10:12:16.817Z,15.00
2022-12-02T10:13:16.800Z,13.00
2022-12-02T10:14:16.819Z,14.90
2022-12-02T10:15:16.778Z,13.60
2022-12-02T10:16:16.872Z,14.70
2022-12-02T10:17:16.799Z,13.60
2022-12-02T10:18:16.753Z,12.70
2022-12-02T10:19:16.729Z,11.90
2022-12-02T10:20:16.729Z,13.40
2022-12-02T10:21:16.722Z,14.10
2022-12-02T10:22:16.738Z,17.10
2022-12-02T10:23:16.730Z,15.90
2022-12-02T10:24:16.698Z,14.90
2022-12-02T10:25:16.670Z,14.00
2022-12-02T10:26:16.670Z,15.20
2022-12-02T10:27:16.649Z,15.50
2022-12-02T10:28:16.662Z,16.20
2022-12-02T10:29:16.631Z,14.50
2022-12-02T10:30:16.620Z,15.20
2022-12-02T10:31:16.619Z,13.30
2022-12-02T10:32:16.641Z,14.40
2022-12-02T10:33:16.598Z,13.70
2022-12-02T10:34:16.603Z,17.30
2022-12-02T10:35:16.593Z,16.30
2022-12-02T10:36:16.552Z,14.00
2022-12-02T10:37:16.551Z,15.50
2022-12-02T10:38:16.587Z,15.10
2022-12-02T10:39:16.525Z,15.10
2022-12-02T10:40:16.545Z,16.40
2022-12-02T10:41:16.495Z,13.50
2022-12-02T10:42:16.481Z,16.50
2022-12-02T10:43:16.475Z,14.00
2022-12-02T10:44:16.471Z,14.80
2022-12-02T10:45:16.464Z,13.60
2022-12-02T10:46:17.686Z,16.10
2022-12-02T10:47:17.418Z,15.20
2022-12-02T10:48:16.433Z,16.10
2022-12-02T10:49:16.415Z,15.40
2022-12-02T10:50:16.404Z,14.40
2022-12-02T10:51:16.452Z,14.20
2022-12-02T10:52:16.383Z,12.20
2022-12-02T10:53:16.391Z,14.20
2022-12-02T10:54:16.353Z,15.60
2022-12-02T10:55:16.419Z,16.00
2022-12-02T10:56:16.334Z,15.00
2022-12-02T10:57:16.594Z,15.50
2022-12-02T10:58:16.312Z,15.00
2022-12-02T10:59:16.322Z,13.80
2022-12-02T11:00:16.326Z,14.80
2022-12-02T11:01:16.342Z,14.90
2022-12-02T11:02:16.381Z,15.30
2022-12-02T11:03:16.289Z,13.60
2022-12-02T11:04:16.256Z,14.20
2022-12-02T11:05:16.244Z,14.30
2022-12-02T11:06:16.228Z,15.20
2022-12-02T11:07:16.234Z,16.40
2022-12-02T11:08:19.290Z,14.40
2022-12-02T11:09:39.204Z,14.10
2022-12-02T11:10:17.183Z,16.10
2022-12-02T11:11:16.163Z,16.20
2022-12-02T11:12:16.395Z,14.40
2022-12-02T11:13:16.186Z,14.40
2022-12-02T11:14:16.158Z,14.20
2022-12-02T11:15:16.127Z,18.40
2022-12-02T11:16:16.135Z,16.20
2022-12-02T11:17:16.107Z,15.10
2022-12-02T11:18:16.095Z,14.70
2022-12-02T11:19:16.125Z,15.60
2022-12-02T11:20:16.095Z,15.10
2022-12-02T11:21:16.078Z,14.60
2022-12-02T11:22:16.045Z,15.00
2022-12-02T11:23:16.036Z,13.60
2022-12-02T11:24:16.025Z,13.70
2022-12-02T11:25:16.041Z,15.00
2022-12-02T11:26:16.052Z,13.20
2022-12-02T11:27:18.697Z,12.90
2022-12-02T11:28:15.988Z,14.10
2022-12-02T11:29:15.980Z,14.40
2022-12-02T11:30:15.971Z,14.40
2022-12-02T11:31:16.018Z,14.80
2022-12-02T11:32:15.945Z,15.80
2022-12-02T11:33:15.928Z,14.40
2022-12-02T11:34:15.953Z,14.30
2022-12-02T11:35:18.154Z,13.90
2022-12-02T11:36:15.898Z,13.10
2022-12-02T11:37:15.906Z,13.10
2022-12-02T11:38:15.883Z,15.60
2022-12-02T11:39:15.879Z,15.20
2022-12-02T11:40:15.868Z,14.90
2022-12-02T11:41:16.378Z,14.50
2022-12-02T11:42:15.857Z,14.10
2022-12-02T11:43:15.913Z,14.60
2022-12-02T11:44:15.808Z,13.40
2022-12-02T11:45:15.796Z,14.80
2022-12-02T11:46:15.854Z,15.40
2022-12-02T11:47:15.778Z,13.00
2022-12-02T11:48:15.792Z,13.50
2022-12-02T11:49:15.760Z,14.80
2022-12-02T11:50:15.751Z,14.60
2022-12-02T11:51:15.776Z,14.60
2022-12-02T11:52:15.768Z,14.50
2022-12-02T11:53:15.717Z,13.90
2022-12-02T11:54:15.721Z,11.60
2022-12-02T11:55:15.687Z,13.30
2022-12-02T11:56:15.669Z,14.60
2022-12-02T11:57:15.677Z,12.60
2022-12-02T11:58:15.660Z,15.40
2022-12-02T11:59:15.656Z,14.10
2022-12-02T12:00:15.674Z,13.40
2022-12-02T12:01:15.628Z,14.60
2022-12-02T12:02:15.719Z,12.30
2022-12-02T12:03:15.690Z,12.10
2022-12-02T12:04:15.577Z,12.90
2022-12-02T12:05:15.578Z,12.80
2022-12-02T12:06:15.603Z,12.20
2022-12-02T12:07:15.582Z,16.20
2022-12-02T12:08:15.568Z,14.10
2022-12-02T12:09:15.530Z,13.80
2022-12-02T12:10:15.510Z,13.90
2022-12-02T12:11:15.525Z,12.00
2022-12-02T12:12:15.519Z,12.90
2022-12-02T12:13:15.490Z,13.70
2022-12-02T12:14:15.460Z,12.00
2022-12-02T12:15:15.459Z,13.90
2022-12-02T12:16:15.512Z,10.70
2022-12-02T12:17:15.585Z,11.70
2022-12-02T12:18:15.497Z,13.00
2022-12-02T12:19:15.432Z,11.80
2022-12-02T12:20:15.413Z,12.10
2022-12-02T12:21:15.391Z,11.70
2022-12-02T12:22:15.380Z,11.30
2022-12-02T12:23:15.370Z,13.60
2022-12-02T12:24:15.390Z,13.20
2022-12-02T12:25:16.547Z,10.30
2022-12-02T12:26:15.427Z,11.50
2022-12-02T12:27:15.315Z,11.80
2022-12-02T12:28:15.327Z,10.20
2022-12-02T12:29:15.301Z,13.10
2022-12-02T12:30:15.357Z,12.30
2022-12-02T12:31:15.343Z,13.80
2022-12-02T12:32:15.271Z,10.20
2022-12-02T12:33:15.263Z,12.40
2022-12-02T12:34:15.251Z,12.10
2022-12-02T12:35:15.487Z,11.40
2022-12-02T12:36:15.228Z,11.60
2022-12-02T12:37:15.223Z,11.80
2022-12-02T12:38:15.212Z,12.80
2022-12-02T12:39:15.183Z,10.80
2022-12-02T12:40:15.175Z,12.90
2022-12-02T12:41:22.194Z,11.50
2022-12-02T12:42:16.163Z,11.50
2022-12-02T12:43:15.140Z,9.80
2022-12-02T12:44:15.148Z,10.60
2022-12-02T12:45:15.305Z,9.90
2022-12-02T12:46:15.173Z,9.90
2022-12-02T12:47:15.147Z,9.50
2022-12-02T12:48:15.077Z,10.30
2022-12-02T12:49:15.110Z,11.00
2022-12-02T12:50:15.053Z,12.10
2022-12-02T12:51:15.044Z,10.50
2022-12-02T12:52:15.368Z,11.40
2022-12-02T12:53:15.018Z,9.30
2022-12-02T12:54:15.005Z,10.10
2022-12-02T12:55:14.995Z,10.80
2022-12-02T12:56:14.985Z,10.90
2022-12-02T12:57:14.973Z,9.30
2022-12-02T12:58:15.010Z,10.40
2022-12-02T12:59:14.945Z,11.50
2022-12-02T13:00:14.933Z,11.40
2022-12-02T13:01:17.832Z,9.80
2022-12-02T13:02:16.158Z,11.80
2022-12-02T13:03:14.941Z,13.30
2022-12-02T13:04:14.933Z,12.00
2022-12-02T13:05:14.878Z,10.20
2022-12-02T13:06:14.915Z,11.60
2022-12-02T13:07:14.874Z,11.00
2022-12-02T13:08:14.956Z,11.10
2022-12-02T13:09:14.842Z,10.00
2022-12-02T13:10:16.054Z,10.20
2022-12-02T13:11:14.819Z,9.80
2022-12-02T13:12:14.794Z,9.60
2022-12-02T13:13:14.785Z,11.90
2022-12-02T13:14:14.765Z,11.80
2022-12-02T13:15:14.784Z,11.50
2022-12-02T13:16:14.780Z,9.00
2022-12-02T13:17:14.814Z,8.70
2022-12-02T13:18:14.730Z,10.10
2022-12-02T13:19:14.709Z,12.20
2022-12-02T13:20:14.714Z,9.70
2022-12-02T13:21:14.717Z,11.80
2022-12-02T13:22:14.686Z,11.30
2022-12-02T13:23:14.664Z,9.70
2022-12-02T13:24:15.937Z,10.10
2022-12-02T13:25:14.729Z,9.40
2022-12-02T13:26:15.455Z,9.10
2022-12-02T13:27:14.647Z,9.20
2022-12-02T13:28:14.617Z,9.10
2022-12-02T13:29:14.596Z,11.20
2022-12-02T13:30:14.590Z,9.10
2022-12-02T13:31:14.619Z,7.90
2022-12-02T13:32:14.566Z,9.70
2022-12-02T13:33:14.583Z,9.80
2022-12-02T13:34:14.548Z,9.00
2022-12-02T13:35:20.603Z,10.50
2022-12-02T13:36:15.523Z,10.40
2022-12-02T13:37:14.503Z,10.70
2022-12-02T13:38:14.529Z,8.70
2022-12-02T13:39:14.523Z,8.90
2022-12-02T13:40:14.467Z,8.70
2022-12-02T13:41:14.454Z,9.20
2022-12-02T13:42:14.456Z,7.80
2022-12-02T13:43:14.454Z,8.00
2022-12-02T13:44:14.447Z,8.90
2022-12-02T13:45:14.408Z,9.00
2022-12-02T13:46:14.465Z,8.80
2022-12-02T13:47:14.387Z,7.40
2022-12-02T13:48:14.387Z,10.00
2022-12-02T13:49:14.367Z,9.40
2022-12-02T13:50:14.406Z,7.70
2022-12-02T13:51:14.367Z,8.80
2022-12-02T13:52:14.328Z,9.50
2022-12-02T13:53:14.321Z,8.70
2022-12-02T13:54:14.297Z,8.20
2022-12-02T13:55:14.297Z,9.20
2022-12-02T13:56:14.321Z,7.60
2022-12-02T13:57:14.275Z,9.80
2022-12-02T13:58:14.265Z,8.90
2022-12-02T13:59:14.263Z,7.00
2022-12-02T14:00:14.248Z,7.80
2022-12-02T14:01:14.269Z,9.60
2022-12-02T14:02:14.251Z,8.90
2022-12-02T14:03:14.266Z,7.50
2022-12-02T14:04:14.290Z,8.10
2022-12-02T14:05:14.178Z,7.80
2022-12-02T14:06:14.178Z,8.80
2022-12-02T14:07:14.176Z,7.90
2022-12-02T14:08:14.237Z,7.70
2022-12-02T14:09:14.148Z,9.90
2022-12-02T14:10:14.131Z,8.10
2022-12-02T14:11:14.120Z,7.70
2022-12-02T14:12:14.110Z,7.40
2022-12-02T14:13:19.634Z,8.30
2022-12-02T14:14:15.090Z,7.50
2022-12-02T14:15:14.077Z,7.50
2022-12-02T14:16:14.162Z,7.80